Time;durP1;ratioP1;P1;durP2;ratioP2;P2;SDS_P1;SDS_P2;PMS_P1;PMS_P2;Temp;Humidity;BMP_temperature;BMP_pressure;BME280_temperature;BME280_humidity;BME280_pressure;Samples;Min_cycle;Max_cycle;Signal;HPM_P1;HPM_P2
2022/10/09 00:01:11;;;;;;;9.38;2.55;;;9.10;99.90;;;;;;5062641;28;20052;-57
2022/10/09 00:03:38;;;;;;;13.45;3.45;;;9.00;99.90;;;;;;5063193;28;20067;-57
2022/10/09 00:06:09;;;;;;;14.68;3.70;;;9.10;99.90;;;;;;5062547;28;20061;-57
2022/10/09 00:08:38;;;;;;;8.13;2.95;;;9.10;99.90;;;;;;5062962;28;20083;-57
2022/10/09 00:11:08;;;;;;;6.38;2.90;;;9.00;99.90;;;;;;5062158;28;20056;-57
2022/10/09 00:13:35;;;;;;;8.77;2.83;;;9.10;99.90;;;;;;5062660;28;20037;-57
2022/10/09 00:16:03;;;;;;;8.93;2.92;;;9.10;99.90;;;;;;5063086;28;20071;-57
2022/10/09 00:18:28;;;;;;;10.27;2.85;;;9.10;99.90;;;;;;5062200;28;20037;-57
2022/10/09 00:20:54;;;;;;;10.82;3.10;;;9.00;99.90;;;;;;5062777;28;20063;-57
2022/10/09 00:23:19;;;;;;;8.60;2.75;;;9.30;99.90;;;;;;5062336;28;20041;-57
2022/10/09 00:25:54;;;;;;;9.80;2.92;;;9.00;99.90;;;;;;5061476;28;20045;-57
2022/10/09 00:28:21;;;;;;;9.18;2.65;;;9.00;99.90;;;;;;5062442;28;20126;-57
2022/10/09 00:30:47;;;;;;;7.20;2.67;;;8.90;99.90;;;;;;5060868;28;20405;-57
2022/10/09 00:33:13;;;;;;;12.95;3.00;;;9.00;99.90;;;;;;5061159;28;20049;-57
2022/10/09 00:35:39;;;;;;;10.30;3.35;;;9.00;99.90;;;;;;5062065;28;20056;-58
2022/10/09 00:38:06;;;;;;;10.13;3.35;;;9.00;99.90;;;;;;5061251;28;20045;-58
2022/10/09 00:40:32;;;;;;;9.30;3.15;;;9.10;99.90;;;;;;5075343;28;20537;-57
2022/10/09 00:42:59;;;;;;;10.00;2.55;;;9.00;99.90;;;;;;5082748;28;20040;-58
2022/10/09 00:45:26;;;;;;;8.77;2.60;;;8.90;99.90;;;;;;5081824;28;20045;-58
2022/10/09 00:48:03;;;;;;;11.10;2.72;;;9.00;99.90;;;;;;5081946;28;20090;-58
2022/10/09 00:50:43;;;;;;;14.52;2.63;;;9.00;99.90;;;;;;5081946;28;20113;-57
2022/10/09 00:53:11;;;;;;;9.98;2.95;;;8.90;99.90;;;;;;5081746;28;20088;-57
2022/10/09 00:55:38;;;;;;;12.63;2.97;;;9.00;99.90;;;;;;5082170;28;20059;-58
2022/10/09 00:58:04;;;;;;;10.15;3.15;;;8.90;99.90;;;;;;5081855;28;20120;-57
2022/10/09 01:00:30;;;;;;;12.43;3.10;;;8.90;99.90;;;;;;5081881;28;20137;-58
2022/10/09 01:02:56;;;;;;;8.45;2.97;;;8.80;99.90;;;;;;5082015;28;20052;-58
2022/10/09 01:05:37;;;;;;;10.05;3.17;;;9.20;99.90;;;;;;5080523;28;20127;-57
2022/10/09 01:08:15;;;;;;;10.35;3.17;;;8.80;99.90;;;;;;5081916;28;20066;-58
2022/10/09 01:11:00;;;;;;;11.57;3.20;;;8.80;99.90;;;;;;5062905;28;20098;-57
2022/10/09 01:13:41;;;;;;;12.10;4.55;;;8.80;99.90;;;;;;5081705;28;20056;-58
2022/10/09 01:16:12;;;;;;;10.95;3.38;;;8.70;99.90;;;;;;5081885;28;20048;-58
2022/10/09 01:19:01;;;;;;;9.45;3.53;;;8.70;99.90;;;;;;5081463;28;20131;-57
2022/10/09 01:21:56;;;;;;;10.98;3.75;;;8.70;99.90;;;;;;5081655;28;20047;-57
2022/10/09 01:24:39;;;;;;;12.80;3.22;;;8.70;99.90;;;;;;5081819;28;20024;-57
2022/10/09 01:27:13;;;;;;;10.05;3.25;;;8.60;99.90;;;;;;5081180;28;20071;-57
2022/10/09 01:29:49;;;;;;;13.27;3.80;;;8.70;99.90;;;;;;5081512;28;20053;-58
2022/10/09 01:32:20;;;;;;;11.10;3.35;;;8.70;99.90;;;;;;5081185;28;20052;-57
2022/10/09 01:34:46;;;;;;;10.05;3.20;;;8.60;99.90;;;;;;5079623;28;20040;-58
2022/10/09 01:37:15;;;;;;;10.95;3.65;;;8.50;99.90;;;;;;5081562;28;20051;-58
2022/10/09 01:39:43;;;;;;;11.18;3.75;;;8.60;99.90;;;;;;5078862;28;20041;-58
2022/10/09 01:42:11;;;;;;;10.43;3.28;;;8.50;99.90;;;;;;5081216;28;20109;-57
2022/10/09 01:44:37;;;;;;;10.57;3.53;;;8.60;99.90;;;;;;5080899;28;20037;-57
2022/10/09 01:47:04;;;;;;;16.77;3.70;;;8.50;99.90;;;;;;5081284;28;20051;-57
2022/10/09 01:49:38;;;;;;;9.82;3.47;;;8.60;99.90;;;;;;5080867;28;20049;-58
2022/10/09 01:52:12;;;;;;;10.98;3.58;;;8.50;99.90;;;;;;5080561;28;20427;-57
2022/10/09 01:54:50;;;;;;;10.27;3.30;;;8.60;99.90;;;;;;5081060;28;20048;-57
2022/10/09 01:57:25;;;;;;;12.68;4.30;;;8.50;99.90;;;;;;5080575;28;20049;-57
2022/10/09 01:59:53;;;;;;;10.55;3.72;;;8.50;99.90;;;;;;5069071;28;20033;-57
2022/10/09 02:02:19;;;;;;;9.98;3.60;;;8.60;99.90;;;;;;5060753;28;20075;-57
2022/10/09 02:04:47;;;;;;;10.63;3.75;;;8.40;99.90;;;;;;5060407;28;20047;-58
2022/10/09 02:07:13;;;;;;;13.00;3.83;;;8.50;99.90;;;;;;5060894;28;20067;-57
2022/10/09 02:09:40;;;;;;;11.32;3.55;;;8.50;99.90;;;;;;5059722;28;20040;-57
2022/10/09 02:12:11;;;;;;;8.80;3.70;;;8.60;99.90;;;;;;5060943;28;20044;-57
2022/10/09 02:14:38;;;;;;;9.65;3.53;;;8.50;99.90;;;;;;5059992;28;20052;-56
2022/10/09 02:17:10;;;;;;;9.65;3.35;;;8.40;99.90;;;;;;5058647;28;20102;-57
2022/10/09 02:19:42;;;;;;;;;;;8.30;99.90;;;;;;5060844;28;20049;-57
2022/10/09 02:22:18;;;;;;;11.55;3.67;;;8.50;99.90;;;;;;5059951;28;19920;-58
2022/10/09 02:24:44;;;;;;;10.07;3.67;;;8.30;99.90;;;;;;5060882;28;20049;-57
2022/10/09 02:27:12;;;;;;;10.38;3.40;;;8.30;99.90;;;;;;5059588;28;20063;-57
2022/10/09 02:29:43;;;;;;;11.43;3.72;;;8.30;99.90;;;;;;5060041;28;20607;-57
2022/10/09 02:32:09;;;;;;;9.15;3.05;;;8.30;99.90;;;;;;5060106;28;20072;-57
2022/10/09 02:34:35;;;;;;;10.23;3.88;;;8.20;99.90;;;;;;5059906;28;20053;-57
2022/10/09 02:37:02;;;;;;;11.93;4.45;;;8.40;99.90;;;;;;5060168;28;20043;-57
2022/10/09 02:39:27;;;;;;;11.07;3.80;;;8.40;99.90;;;;;;5062620;28;20044;-57
2022/10/09 02:41:53;;;;;;;9.63;3.67;;;8.30;99.90;;;;;;5080573;28;20132;-58
2022/10/09 02:44:19;;;;;;;9.38;3.78;;;8.30;99.90;;;;;;5079033;28;20048;-57
2022/10/09 02:46:44;;;;;;;12.00;3.58;;;8.30;99.90;;;;;;5080159;28;20047;-57
2022/10/09 02:49:10;;;;;;;11.77;3.97;;;8.30;99.90;;;;;;5078242;28;20478;-57
2022/10/09 02:51:36;;;;;;;10.82;3.75;;;8.30;99.90;;;;;;5080098;28;20574;-58
2022/10/09 02:54:02;;;;;;;12.27;3.92;;;8.10;99.90;;;;;;5079826;28;20098;-58
2022/10/09 02:56:28;;;;;;;11.38;4.20;;;8.20;99.90;;;;;;5077593;28;20052;-58
2022/10/09 02:58:53;;;;;;;8.93;3.42;;;8.30;99.90;;;;;;5076369;28;20029;-58
2022/10/09 03:01:20;;;;;;;9.40;3.70;;;8.20;99.90;;;;;;5057723;28;20906;-57
2022/10/09 03:03:45;;;;;;;12.32;4.22;;;8.10;99.90;;;;;;5059907;28;20056;-58
2022/10/09 03:06:13;;;;;;;8.02;4.50;;;8.20;99.90;;;;;;5058652;28;20421;-57
2022/10/09 03:08:45;;;;;;;8.38;4.10;;;8.00;99.90;;;;;;5059893;28;20044;-58
2022/10/09 03:11:12;;;;;;;9.87;3.83;;;8.10;99.90;;;;;;5057919;28;20055;-57
2022/10/09 03:13:38;;;;;;;12.02;4.47;;;8.10;99.90;;;;;;5058606;28;20045;-57
2022/10/09 03:16:12;;;;;;;9.77;4.38;;;8.10;99.90;;;;;;5058664;28;20543;-57
2022/10/09 03:18:39;;;;;;;8.93;3.78;;;7.90;99.90;;;;;;5058926;28;20100;-58
2022/10/09 03:21:10;;;;;;;14.52;4.43;;;7.90;99.90;;;;;;5059882;28;20060;-58
2022/10/09 03:23:36;;;;;;;11.73;5.55;;;7.80;99.90;;;;;;5058870;28;20047;-58
2022/10/09 03:26:05;;;;;;;12.57;4.40;;;7.90;99.90;;;;;;5059333;28;20040;-58
2022/10/09 03:28:33;;;;;;;13.85;6.20;;;7.70;99.90;;;;;;5058998;28;20044;-57
2022/10/09 03:30:59;;;;;;;11.98;4.05;;;7.70;99.90;;;;;;5058246;28;20049;-57
2022/10/09 03:33:25;;;;;;;9.85;4.40;;;7.90;99.90;;;;;;5059497;28;20075;-58
2022/10/09 03:35:50;;;;;;;12.07;4.80;;;7.90;99.90;;;;;;5058502;28;20511;-58
2022/10/09 03:38:16;;;;;;;10.55;4.82;;;7.80;99.90;;;;;;5059382;28;20033;-58
2022/10/09 03:40:42;;;;;;;11.90;4.55;;;7.80;99.90;;;;;;5073462;28;20040;-57
2022/10/09 03:43:08;;;;;;;10.95;4.75;;;7.80;99.90;;;;;;5079404;28;20052;-57
2022/10/09 03:45:37;;;;;;;11.35;4.55;;;7.80;99.90;;;;;;5079045;28;20066;-58
2022/10/09 03:48:03;;;;;;;10.88;4.90;;;7.80;99.90;;;;;;5078568;28;20420;-58
2022/10/09 03:50:28;;;;;;;13.30;5.22;;;7.70;99.90;;;;;;5079154;28;20052;-57
2022/10/09 03:52:54;;;;;;;12.48;4.95;;;7.70;99.90;;;;;;5078687;28;20045;-57
2022/10/09 03:55:20;;;;;;;14.27;5.32;;;7.70;99.90;;;;;;5078105;28;20055;-58
2022/10/09 03:57:45;;;;;;;14.00;5.38;;;7.60;99.90;;;;;;5078447;28;20063;-58
2022/10/09 04:00:11;;;;;;;14.32;5.35;;;7.70;99.90;;;;;;5064391;28;20037;-58
2022/10/09 04:02:37;;;;;;;9.98;6.13;;;7.80;99.90;;;;;;5058946;28;20560;-58
2022/10/09 04:05:03;;;;;;;12.68;5.70;;;7.60;99.90;;;;;;5058271;28;20041;-57
2022/10/09 04:07:29;;;;;;;11.10;5.40;;;7.60;99.90;;;;;;5058799;28;20112;-57
2022/10/09 04:09:54;;;;;;;11.80;5.75;;;7.70;99.90;;;;;;5058132;28;20060;-57
2022/10/09 04:12:20;;;;;;;10.90;5.70;;;7.70;99.90;;;;;;5059040;28;20120;-58
2022/10/09 04:14:46;;;;;;;10.35;5.57;;;7.80;99.90;;;;;;5055848;28;20053;-57
2022/10/09 04:17:12;;;;;;;11.63;6.20;;;7.70;99.90;;;;;;5055635;28;20048;-56
2022/10/09 04:19:37;;;;;;;11.43;6.10;;;7.70;99.90;;;;;;5055175;28;20051;-57
2022/10/09 04:22:03;;;;;;;10.18;6.05;;;7.80;99.90;;;;;;5053260;28;20607;-56
2022/10/09 04:24:28;;;;;;;11.82;5.93;;;7.80;99.90;;;;;;5055117;28;20644;-57
2022/10/09 04:26:55;;;;;;;10.77;6.68;;;7.70;99.90;;;;;;5054139;28;20144;-57
2022/10/09 04:29:21;;;;;;;12.23;6.05;;;7.60;99.90;;;;;;5055158;28;20053;-57
2022/10/09 04:31:47;;;;;;;13.40;5.97;;;7.80;99.90;;;;;;5053233;28;20045;-57
2022/10/09 04:34:13;;;;;;;12.00;5.40;;;7.80;99.90;;;;;;5055080;28;20059;-57
2022/10/09 04:36:38;;;;;;;13.77;6.55;;;7.60;99.90;;;;;;5054408;28;20033;-57
2022/10/09 04:39:04;;;;;;;11.98;6.30;;;7.70;99.90;;;;;;5055747;28;20044;-57
2022/10/09 04:41:30;;;;;;;12.60;5.97;;;7.70;99.90;;;;;;5077420;28;20055;-57
2022/10/09 04:43:56;;;;;;;12.30;6.32;;;7.80;99.90;;;;;;5077565;28;20075;-57
2022/10/09 04:46:22;;;;;;;12.68;6.93;;;7.70;99.90;;;;;;5078584;28;20056;-57
2022/10/09 04:48:48;;;;;;;11.60;6.22;;;7.70;99.90;;;;;;5077096;28;20142;-57
2022/10/09 04:51:16;;;;;;;13.38;6.10;;;7.70;99.90;;;;;;5078492;28;20060;-57
2022/10/09 04:53:42;;;;;;;13.77;5.85;;;7.60;99.90;;;;;;5078448;28;20495;-57
2022/10/09 04:56:11;;;;;;;9.60;6.15;;;7.60;99.90;;;;;;5078150;28;20140;-57
2022/10/09 04:58:39;;;;;;;11.52;5.53;;;7.70;99.90;;;;;;5076778;28;20043;-57
2022/10/09 05:01:34;;;;;;;11.38;5.93;;;7.50;99.90;;;;;;5057568;28;20102;-57
2022/10/09 05:04:00;;;;;;;11.52;6.05;;;7.60;99.90;;;;;;5053442;28;20094;-57
2022/10/09 05:06:25;;;;;;;13.27;6.38;;;7.60;99.90;;;;;;5039331;28;20068;-57
2022/10/09 05:08:53;;;;;;;14.10;6.78;;;7.50;99.90;;;;;;5058169;28;20079;-57
2022/10/09 05:11:21;;;;;;;13.85;6.55;;;7.60;99.90;;;;;;5058118;28;20443;-57
2022/10/09 05:13:52;;;;;;;15.52;6.40;;;7.50;99.90;;;;;;5057535;28;20482;-56
2022/10/09 05:16:23;;;;;;;11.55;6.97;;;7.50;99.90;;;;;;5058009;28;20102;-57
2022/10/09 05:18:51;;;;;;;14.32;6.07;;;7.50;99.90;;;;;;5057745;28;20053;-57
2022/10/09 05:21:17;;;;;;;14.25;6.53;;;7.50;99.90;;;;;;5066737;28;20104;-57
2022/10/09 05:23:43;;;;;;;14.95;6.55;;;7.40;99.90;;;;;;5077217;28;20072;-57
2022/10/09 05:26:15;;;;;;;12.52;6.85;;;7.40;99.90;;;;;;5077211;28;20049;-57
2022/10/09 05:28:41;;;;;;;15.43;6.75;;;7.50;99.90;;;;;;5078371;28;20112;-57
2022/10/09 05:31:08;;;;;;;15.23;8.18;;;7.40;99.90;;;;;;5076956;28;20048;-57
2022/10/09 05:33:34;;;;;;;13.95;6.97;;;7.40;99.90;;;;;;5077837;28;20590;-57
2022/10/09 05:36:02;;;;;;;15.00;7.57;;;7.50;99.90;;;;;;5077091;28;20512;-57
2022/10/09 05:38:28;;;;;;;14.35;7.13;;;7.40;99.90;;;;;;5077317;28;20044;-57
2022/10/09 05:40:57;;;;;;;14.65;7.00;;;7.50;99.90;;;;;;5076880;28;20357;-57
2022/10/09 05:43:27;;;;;;;12.40;6.75;;;7.40;99.90;;;;;;5075971;28;20079;-57
2022/10/09 05:45:53;;;;;;;14.10;6.40;;;7.30;99.90;;;;;;5077499;28;20051;-57
2022/10/09 05:48:20;;;;;;;13.57;6.82;;;7.40;99.90;;;;;;5076584;28;20040;-57
2022/10/09 05:50:46;;;;;;;13.48;6.72;;;7.40;99.90;;;;;;5077131;28;20079;-57
2022/10/09 05:53:11;;;;;;;14.32;6.47;;;7.40;99.90;;;;;;5076992;28;20028;-57
2022/10/09 05:55:37;;;;;;;11.82;6.88;;;7.40;99.90;;;;;;5077604;28;20068;-57
2022/10/09 05:58:03;;;;;;;13.10;6.88;;;7.40;99.90;;;;;;5076588;28;20571;-56
2022/10/09 06:00:29;;;;;;;12.65;6.80;;;7.40;99.90;;;;;;5077166;28;20221;-57
2022/10/09 06:02:55;;;;;;;14.00;6.35;;;7.50;99.90;;;;;;5077203;28;20088;-56
2022/10/09 06:05:22;;;;;;;10.93;6.68;;;7.50;99.90;;;;;;5076313;28;20086;-56
2022/10/09 06:07:47;;;;;;;13.60;7.95;;;7.50;99.90;;;;;;5076998;28;20068;-57
2022/10/09 06:10:13;;;;;;;11.57;6.80;;;7.50;99.90;;;;;;5075940;28;20041;-56
2022/10/09 06:12:39;;;;;;;12.75;6.80;;;7.40;99.90;;;;;;5077254;28;20115;-57
2022/10/09 06:15:06;;;;;;;14.20;6.93;;;7.40;99.90;;;;;;5076468;28;20052;-57
2022/10/09 06:17:32;;;;;;;13.85;8.23;;;7.40;99.90;;;;;;5076343;28;20044;-57
2022/10/09 06:19:58;;;;;;;14.38;6.82;;;7.40;99.90;;;;;;5076750;28;20040;-55
2022/10/09 06:22:23;;;;;;;13.32;6.95;;;7.50;99.90;;;;;;5076073;28;20135;-57
2022/10/09 06:24:49;;;;;;;11.85;6.38;;;7.50;99.90;;;;;;5077261;28;20052;-57
2022/10/09 06:27:15;;;;;;;12.25;6.60;;;7.50;99.90;;;;;;5075710;28;20418;-57
2022/10/09 06:29:40;;;;;;;11.90;6.50;;;7.70;99.90;;;;;;5076564;28;20464;-57
2022/10/09 06:32:06;;;;;;;13.57;6.15;;;7.70;99.90;;;;;;5075941;28;20066;-57
2022/10/09 06:34:32;;;;;;;13.40;6.97;;;7.70;99.90;;;;;;5076515;28;20037;-57
2022/10/09 06:36:57;;;;;;;9.48;6.25;;;7.70;99.90;;;;;;5076475;28;20052;-57
2022/10/09 06:39:25;;;;;;;14.55;6.97;;;7.60;99.90;;;;;;5074860;28;20041;-57
2022/10/09 06:41:50;;;;;;;15.68;6.70;;;7.70;99.90;;;;;;5076696;28;20055;-57
2022/10/09 06:44:17;;;;;;;12.20;6.53;;;7.80;99.90;;;;;;5075964;28;20080;-57
2022/10/09 06:46:44;;;;;;;12.30;6.45;;;7.80;99.90;;;;;;5076403;28;20044;-56
2022/10/09 06:49:11;;;;;;;11.50;6.25;;;8.00;99.90;;;;;;5075545;28;20041;-57
2022/10/09 06:51:37;;;;;;;10.82;6.63;;;8.00;99.90;;;;;;5075605;28;20524;-57
2022/10/09 06:54:09;;;;;;;11.15;6.43;;;8.00;99.90;;;;;;5076103;28;20040;-57
2022/10/09 06:56:35;;;;;;;14.48;6.65;;;8.00;99.90;;;;;;5075407;28;20051;-57
2022/10/09 06:59:02;;;;;;;16.13;6.88;;;8.00;99.90;;;;;;5071490;28;20159;-57
2022/10/09 07:01:30;;;;;;;12.45;6.38;;;8.10;99.90;;;;;;5055398;28;20063;-56
2022/10/09 07:04:02;;;;;;;12.95;6.03;;;8.20;99.90;;;;;;5055194;28;20493;-57
2022/10/09 07:06:30;;;;;;;13.43;6.20;;;8.20;99.90;;;;;;5055847;28;20549;-57
2022/10/09 07:08:58;;;;;;;15.63;6.10;;;8.20;99.90;;;;;;5055663;28;20059;-57
2022/10/09 07:11:26;;;;;;;16.50;6.63;;;8.20;99.90;;;;;;5055940;28;20162;-55
2022/10/09 07:13:54;;;;;;;14.35;6.18;;;8.30;99.90;;;;;;5054962;28;20072;-57
2022/10/09 07:16:23;;;;;;;15.15;6.60;;;8.20;99.90;;;;;;5055599;28;20043;-57
2022/10/09 07:18:49;;;;;;;13.60;6.55;;;8.30;99.90;;;;;;5055524;28;20665;-56
2022/10/09 07:21:15;;;;;;;14.10;6.45;;;8.30;99.90;;;;;;5056111;28;20068;-57
2022/10/09 07:23:41;;;;;;;10.75;6.35;;;8.30;99.90;;;;;;5053935;28;20505;-57
2022/10/09 07:26:21;;;;;;;12.38;6.80;;;8.50;99.90;;;;;;5054186;28;20044;-57
2022/10/09 07:28:47;;;;;;;12.98;6.20;;;8.50;99.90;;;;;;5055632;28;20071;-57
2022/10/09 07:31:13;;;;;;;11.93;5.65;;;8.70;99.90;;;;;;5055051;28;20365;-57
2022/10/09 07:33:42;;;;;;;12.48;6.75;;;8.50;99.90;;;;;;5055793;28;20044;-57
2022/10/09 07:36:09;;;;;;;11.90;6.03;;;8.70;99.90;;;;;;5055091;28;20037;-57
2022/10/09 07:38:35;;;;;;;18.00;7.25;;;8.60;99.90;;;;;;5055552;28;20063;-55
2022/10/09 07:41:05;;;;;;;13.73;6.68;;;8.80;99.90;;;;;;5072746;28;20045;-56
2022/10/09 07:43:30;;;;;;;10.93;5.90;;;8.90;99.90;;;;;;5075255;28;20042;-57
2022/10/09 07:46:00;;;;;;;11.88;6.30;;;9.00;99.90;;;;;;5074525;28;20068;-57
2022/10/09 07:48:27;;;;;;;12.20;6.43;;;8.90;99.90;;;;;;5074803;28;20273;-55
2022/10/09 07:50:53;;;;;;;12.65;6.15;;;9.10;99.90;;;;;;5074608;28;20048;-57
2022/10/09 07:53:19;;;;;;;12.18;6.53;;;9.10;99.90;;;;;;5075006;28;20086;-57
2022/10/09 07:55:46;;;;;;;12.52;5.85;;;9.20;99.90;;;;;;5075605;28;20054;-57
2022/10/09 07:58:15;;;;;;;12.38;6.53;;;9.30;99.90;;;;;;5073895;28;20041;-57
2022/10/09 08:00:42;;;;;;;12.23;6.65;;;9.30;99.90;;;;;;5074325;28;20048;-57
2022/10/09 08:03:08;;;;;;;12.23;5.95;;;9.40;99.90;;;;;;5073832;28;20041;-58
2022/10/09 08:05:34;;;;;;;13.50;6.32;;;9.50;99.90;;;;;;5074542;28;20544;-57
2022/10/09 08:07:59;;;;;;;11.90;5.88;;;9.60;99.90;;;;;;5075449;28;20096;-57
2022/10/09 08:10:29;;;;;;;11.68;5.57;;;9.70;99.90;;;;;;5074605;28;20054;-56
2022/10/09 08:12:55;;;;;;;10.80;5.28;;;9.70;99.90;;;;;;5075556;28;20084;-57
2022/10/09 08:15:21;;;;;;;12.57;5.85;;;9.90;99.90;;;;;;5075158;28;20044;-57
2022/10/09 08:17:46;;;;;;;12.38;5.47;;;10.10;99.90;;;;;;5077941;28;20052;-57
2022/10/09 08:20:12;;;;;;;15.40;6.18;;;10.10;99.90;;;;;;5079332;28;20975;-57
2022/10/09 08:22:37;;;;;;;13.80;5.70;;;10.20;99.90;;;;;;5078232;28;20187;-57
2022/10/09 08:25:04;;;;;;;17.50;6.30;;;10.20;99.90;;;;;;5079113;28;20032;-57
2022/10/09 08:27:29;;;;;;;14.40;6.75;;;10.40;99.90;;;;;;5078226;28;20094;-56
2022/10/09 08:29:55;;;;;;;16.85;5.88;;;10.50;99.90;;;;;;5079176;28;20048;-57
2022/10/09 08:32:20;;;;;;;13.60;5.15;;;10.50;99.90;;;;;;5077059;28;20036;-57
2022/10/09 08:34:46;;;;;;;13.05;6.10;;;10.70;99.90;;;;;;5078408;28;20033;-57
2022/10/09 08:37:12;;;;;;;12.77;5.97;;;10.80;99.90;;;;;;5077771;28;20044;-57
2022/10/09 08:39:37;;;;;;;13.13;5.75;;;10.80;99.90;;;;;;5077438;28;20067;-57
2022/10/09 08:42:04;;;;;;;14.13;6.10;;;10.90;99.90;;;;;;5078861;28;20487;-57
2022/10/09 08:44:32;;;;;;;12.27;6.00;;;10.90;99.90;;;;;;5076616;28;20128;-57
2022/10/09 08:47:22;;;;;;;13.35;6.18;;;10.90;99.90;;;;;;5079015;28;20045;-57
2022/10/09 08:49:51;;;;;;;14.00;6.18;;;11.10;99.90;;;;;;5078926;28;20101;-57
2022/10/09 08:52:35;;;;;;;13.82;6.70;;;11.10;99.90;;;;;;5077494;28;20052;-56
2022/10/09 08:55:23;;;;;;;15.25;6.60;;;11.10;99.90;;;;;;5078490;28;20428;-57
2022/10/09 08:57:52;;;;;;;13.25;5.55;;;11.20;99.90;;;;;;5078032;28;20040;-57
2022/10/09 09:00:21;;;;;;;12.90;5.70;;;11.40;99.90;;;;;;5062604;28;20063;-57
2022/10/09 09:03:12;;;;;;;9.90;4.70;;;11.40;99.90;;;;;;5058335;28;20049;-57
2022/10/09 09:05:43;;;;;;;13.10;4.57;;;11.50;99.90;;;;;;5058300;28;20060;-57
2022/10/09 09:08:44;;;;;;;10.05;3.95;;;11.60;99.90;;;;;;5078102;28;20052;-57
2022/10/09 09:11:28;;;;;;;10.35;3.90;;;11.60;99.90;;;;;;5077856;28;20102;-58
2022/10/09 09:14:07;;;;;;;12.02;3.67;;;11.60;99.90;;;;;;5079635;28;20048;-58
2022/10/09 09:16:51;;;;;;;10.80;3.55;;;11.70;99.90;;;;;;5081733;28;20488;-57
2022/10/09 09:20:05;;;;;;;10.65;3.47;;;11.80;99.90;;;;;;5080135;28;20047;-58
2022/10/09 09:22:33;;;;;;;10.55;3.92;;;11.90;99.90;;;;;;5043227;28;20045;-57
2022/10/09 09:24:59;;;;;;;8.70;3.60;;;12.00;99.90;;;;;;5081742;28;20063;-58
2022/10/09 09:27:31;;;;;;;11.32;3.50;;;12.10;99.90;;;;;;5078612;28;20075;-57
2022/10/09 09:30:15;;;;;;;;;;;12.00;99.90;;;;;;5082026;28;20041;-57
2022/10/09 09:32:49;;;;;;;10.93;2.90;;;12.10;99.90;;;;;;5081772;28;20277;-57
2022/10/09 09:35:32;;;;;;;9.23;2.95;;;12.20;99.90;;;;;;5080444;28;20412;-58
2022/10/09 09:37:58;;;;;;;9.48;2.80;;;12.20;99.90;;;;;;5081576;28;20079;-58
2022/10/09 09:40:31;;;;;;;8.35;2.40;;;12.30;99.90;;;;;;5080391;28;20045;-57
2022/10/09 09:42:58;;;;;;;8.82;2.58;;;12.20;99.90;;;;;;5081259;28;20083;-57
2022/10/09 09:45:25;;;;;;;13.20;3.00;;;12.30;99.90;;;;;;5072693;28;20520;-57
2022/10/09 09:47:56;;;;;;;8.73;2.83;;;12.30;99.90;;;;;;5060812;28;20041;-57
2022/10/09 09:50:51;;;;;;;10.15;2.47;;;12.40;99.90;;;;;;5061971;28;20025;-58
2022/10/09 09:53:34;;;;;;;8.20;2.20;;;12.50;99.90;;;;;;5063097;28;20081;-57
2022/10/09 09:56:00;;;;;;;8.98;2.50;;;12.50;99.90;;;;;;5064905;28;20090;-58
2022/10/09 09:58:50;;;;;;;10.02;2.38;;;12.50;99.90;;;;;;5068758;28;20029;-58
2022/10/09 10:01:27;;;;;;;9.70;2.55;;;12.50;99.90;;;;;;5065326;28;20079;-57
2022/10/09 10:03:58;;;;;;;11.90;2.40;;;12.60;99.90;;;;;;5068338;28;20051;-57
2022/10/09 10:06:30;;;;;;;8.57;2.10;;;12.60;99.90;;;;;;5065684;28;20053;-57
2022/10/09 10:09:02;;;;;;;;;;;12.60;99.90;;;;;;5065799;28;20108;-58
2022/10/09 10:11:29;;;;;;;7.95;2.28;;;12.70;99.90;;;;;;5064578;28;19921;-58
2022/10/09 10:13:55;;;;;;;6.97;2.42;;;12.80;99.90;;;;;;5065718;28;20039;-57
2022/10/09 10:16:27;;;;;;;7.55;2.40;;;12.80;99.90;;;;;;5060133;28;20041;-57
2022/10/09 10:18:55;;;;;;;11.93;1.92;;;12.80;99.90;;;;;;5062058;28;20048;-57
2022/10/09 10:21:21;;;;;;;12.48;2.35;;;13.00;99.90;;;;;;5064204;28;20040;-57
2022/10/09 10:23:59;;;;;;;10.93;2.22;;;12.90;99.90;;;;;;5063738;28;20043;-57
2022/10/09 10:26:38;;;;;;;10.23;2.22;;;12.90;99.90;;;;;;5061464;28;20045;-58
2022/10/09 10:29:42;;;;;;;11.98;1.92;;;13.00;99.90;;;;;;5065087;28;20552;-57
2022/10/09 10:32:27;;;;;;;9.85;2.15;;;13.00;99.90;;;;;;5062000;28;20745;-57
2022/10/09 10:35:08;;;;;;;8.40;1.60;;;13.10;99.90;;;;;;5065768;28;20064;-58
2022/10/09 10:38:12;;;;;;;8.20;1.70;;;13.20;99.90;;;;;;5063737;28;20041;-58
2022/10/09 10:40:42;;;;;;;9.55;1.90;;;13.40;99.90;;;;;;5062847;28;20538;-58
2022/10/09 10:43:08;;;;;;;9.00;1.80;;;13.50;99.90;;;;;;5062131;28;20416;-58
2022/10/09 10:45:43;;;;;;;10.57;1.85;;;13.60;99.90;;;;;;5064016;28;20037;-57
2022/10/09 10:48:13;;;;;;;8.85;1.70;;;13.70;99.90;;;;;;5063973;28;20048;-58
2022/10/09 10:50:53;;;;;;;7.32;1.50;;;13.60;99.90;;;;;;5063198;28;20041;-58
2022/10/09 10:53:41;;;;;;;9.65;2.40;;;13.70;99.90;;;;;;5065275;28;20048;-57
2022/10/09 10:56:16;;;;;;;9.65;2.22;;;13.70;99.90;;;;;;5065587;28;20764;-58
2022/10/09 10:59:02;;;;;;;9.15;1.70;;;13.70;99.90;;;;;;5065575;28;20048;-58
2022/10/09 11:01:39;;;;;;;7.80;1.95;;;13.80;99.90;;;;;;5063881;28;20048;-58
2022/10/09 11:04:32;;;;;;;9.35;1.55;;;14.00;99.90;;;;;;5068931;28;20044;-58
2022/10/09 11:07:36;;;;;;;10.15;2.38;;;14.00;99.90;;;;;;5062028;28;20044;-57
2022/10/09 11:10:31;;;;;;;10.00;1.85;;;13.90;99.90;;;;;;5064107;28;20044;-57
2022/10/09 11:13:07;;;;;;;7.13;1.80;;;13.80;99.90;;;;;;5067954;28;20076;-58
2022/10/09 11:15:38;;;;;;;10.95;2.45;;;13.80;99.90;;;;;;5062080;28;20401;-57
2022/10/09 11:18:29;;;;;;;8.43;1.80;;;13.90;99.90;;;;;;5064538;28;20040;-57
2022/10/09 11:21:16;;;;;;;8.30;1.48;;;14.00;99.90;;;;;;5064655;28;20052;-58
2022/10/09 11:23:53;;;;;;;6.13;1.48;;;13.90;99.90;;;;;;5065071;28;20071;-57
2022/10/09 11:26:47;;;;;;;6.15;1.20;;;14.10;99.90;;;;;;5065375;28;20056;-58
2022/10/09 11:29:25;;;;;;;6.57;1.60;;;14.40;99.90;;;;;;5065206;28;20491;-57
2022/10/09 11:31:56;;;;;;;12.60;1.95;;;14.30;99.90;;;;;;5065835;28;20048;-58
2022/10/09 11:34:29;;;;;;;9.38;1.52;;;14.30;99.90;;;;;;5065058;28;20626;-58
2022/10/09 11:36:57;;;;;;;6.97;1.50;;;14.30;99.90;;;;;;5065116;28;20064;-57
2022/10/09 11:39:26;;;;;;;14.00;3.15;;;14.30;99.90;;;;;;5063570;28;20501;-57
2022/10/09 11:41:53;;;;;;;7.43;1.85;;;14.60;99.90;;;;;;5065952;28;20048;-57
2022/10/09 11:44:34;;;;;;;9.13;1.58;;;14.50;99.90;;;;;;5062572;28;20036;-57
2022/10/09 11:47:22;;;;;;;7.53;1.52;;;14.60;99.90;;;;;;5066468;28;20036;-58
2022/10/09 11:50:15;;;;;;;5.60;1.40;;;14.60;99.90;;;;;;5065542;28;20097;-58
2022/10/09 11:53:00;;;;;;;8.95;1.40;;;14.60;99.90;;;;;;5073003;28;20074;-57
2022/10/09 11:55:31;;;;;;;6.88;1.45;;;14.60;99.90;;;;;;5079343;28;20084;-58
2022/10/09 11:58:13;;;;;;;7.03;1.30;;;14.70;99.90;;;;;;5079343;28;20053;-57
2022/10/09 12:00:40;;;;;;;6.20;1.35;;;14.60;99.90;;;;;;5078096;28;20059;-57
2022/10/09 12:03:06;;;;;;;9.70;2.33;;;14.60;99.90;;;;;;5079532;28;20052;-58
2022/10/09 12:05:41;;;;;;;6.82;1.73;;;14.70;99.90;;;;;;5078178;28;20044;-57
2022/10/09 12:08:16;;;;;;;8.80;1.70;;;14.70;99.90;;;;;;5079307;28;20082;-58
2022/10/09 12:11:17;;;;;;;8.18;1.63;;;14.60;99.90;;;;;;5078541;28;20404;-57
2022/10/09 12:13:57;;;;;;;7.05;1.40;;;14.60;99.90;;;;;;5054579;28;20045;-58
2022/10/09 12:16:41;;;;;;;8.93;2.15;;;14.70;99.90;;;;;;5079245;28;20094;-57
2022/10/09 12:19:14;;;;;;;5.40;1.27;;;14.70;99.90;;;;;;5078579;28;20071;-57
2022/10/09 12:22:11;;;;;;;7.63;1.60;;;14.80;99.90;;;;;;5078810;28;20116;-58
2022/10/09 12:25:02;;;;;;;7.80;1.60;;;14.80;99.90;;;;;;5069963;28;20528;-58
2022/10/09 12:27:35;;;;;;;5.80;1.45;;;14.80;99.90;;;;;;5077935;28;20033;-57
2022/10/09 12:30:17;;;;;;;5.85;1.50;;;14.90;99.90;;;;;;5078582;28;20052;-58
2022/10/09 12:33:13;;;;;;;8.10;1.35;;;15.00;99.90;;;;;;5078743;28;20121;-57
2022/10/09 12:35:41;;;;;;;10.27;1.42;;;14.90;99.90;;;;;;5078219;28;20040;-57
2022/10/09 12:38:26;;;;;;;8.95;1.38;;;14.90;99.90;;;;;;5079127;28;20041;-58
2022/10/09 12:40:54;;;;;;;7.25;1.33;;;14.90;99.90;;;;;;5077991;28;20054;-57
2022/10/09 12:43:22;;;;;;;8.70;1.40;;;14.80;99.90;;;;;;5078431;28;20435;-57
2022/10/09 12:45:50;;;;;;;5.45;1.17;;;14.80;99.90;;;;;;5078421;28;20115;-57
2022/10/09 12:48:20;;;;;;;7.40;1.42;;;14.80;99.90;;;;;;5076935;28;20250;-58
2022/10/09 12:50:47;;;;;;;5.95;1.73;;;14.70;99.90;;;;;;5078133;28;20041;-57
2022/10/09 12:53:16;;;;;;;6.95;1.50;;;14.60;99.90;;;;;;5077962;28;20040;-58
2022/10/09 12:55:45;;;;;;;6.32;1.40;;;14.60;99.90;;;;;;5078199;28;20048;-58
2022/10/09 12:58:19;;;;;;;8.95;1.58;;;14.60;99.90;;;;;;5078363;28;20057;-56
2022/10/09 13:00:47;;;;;;;8.55;1.80;;;14.70;99.90;;;;;;5058655;28;20040;-58
2022/10/09 13:03:31;;;;;;;5.82;1.48;;;14.60;99.90;;;;;;5061772;28;20082;-58
2022/10/09 13:05:58;;;;;;;8.73;1.67;;;14.60;99.90;;;;;;5067861;28;20059;-57
2022/10/09 13:08:33;;;;;;;7.65;1.70;;;14.60;99.90;;;;;;5079496;28;20067;-57